Detalii statie AGRALMIXT [00001CED]

Toti senzorii

Date Temperatura solului [C]Precipitatii [mm]Voltaj baterie [mV]Leaf Wetness [Min]HC Air temperature [C]HC Relative humidity [%]Punctul de roua [C]
medieminmaxsumaultimatimpmedieminmaxmediemediemin
2018-08-12 11:00:00 0 7324 25.71 23.83 26.62 59.34 17 16.4
2018-08-12 12:00:00 0 7324 27.72 26.73 28.81 56.94 18.2 17.5
2018-08-12 13:00:00 0 7324 29.6 27.71 31.28 49.5 17.6 16.6
2018-08-12 14:00:00 0 7314 30.86 29.55 32.71 45.57 17.4 15.8
2018-08-12 15:00:00 0 7176 31.27 29.81 33.05 40.19 15.8 13
2018-08-12 16:00:00 0 7294 30.94 29.52 31.76 38.72 14.9 12
2018-08-12 17:00:00 0 7294 30.72 29.93 31.78 35.35 13.3 11.5
2018-08-12 18:00:00 0 6904 29.74 29.09 30.4 34.77 12.2 11.6
2018-08-12 19:00:00 0 6834 26.62 25.03 29.1 40.34 11.7 10.9
2018-08-12 20:00:00 0 6776 22.35 20.58 24.59 56.87 13 11.4
2018-08-12 21:00:00 0 6756 20.08 19.78 20.46 77.06 15.7 15
2018-08-12 22:00:00 0 6756 19.39 18.91 20 84.75 16.6 16.3
2018-08-12 23:00:00 0 6748 18.43 17.66 18.8 93.55 17.2 16.8
2018-08-13 00:00:00 0 6738 17.46 17.09 17.82 99.01 17.2 16.3
2018-08-13 01:00:00 0 6738 17 16.66 17.29 100 16.9 16.6
2018-08-13 02:00:00 0 6728 16.77 16.4 17.07 100 16.7 16.4
2018-08-13 03:00:00 0 6728 15.93 15.51 16.63 100 15.8 15.5
2018-08-13 04:00:00 0 6728 15.54 15.03 16.02 100 15.5 15
2018-08-13 05:00:00 0 6728 15.09 14.72 15.63 100 15 14.7
2018-08-13 06:00:00 0 6796 15.17 14.76 15.76 100 15.1 14.7
2018-08-13 07:00:00 0.2 7342 17.22 15.99 18.38 100 17.1 15.9
2018-08-13 08:00:00 0 7342 19.79 18.92 20.84 100 19.7 18.9
2018-08-13 09:00:00 0 7332 24.28 22.07 26.49 87.88 21.9 21.1
2018-08-13 10:00:00 0 7324 27.47 26.63 28.57 65.05 20.1 19.1
2018-08-13 11:00:00 0 7324 29.74 28.88 30.85 55.25 19.6 18.9
2018-08-13 12:00:00 0 7324 31.23 29.81 32.39 49.92 19.3 18.5
2018-08-13 13:00:00 0 7314 31.76 31.04 32.41 49.26 19.6 18.3
2018-08-13 14:00:00 0 7314 32.49 31.71 33.04 44.69 18.6 17.6
2018-08-13 15:00:00 0 7196 33.38 32.51 34 42.79 18.7 16.5
2018-08-13 16:00:00 0 7294 31.93 30.09 33.53 44.99 18.2 17.3
2018-08-13 17:00:00 0 7294 31.54 30.9 32.58 44.7 17.8 16.9
2018-08-13 18:00:00 0 7128 31.42 30.42 32.23 44.3 17.6 16.4
2018-08-13 19:00:00 0 6854 27.32 25.41 30.47 55.78 17.4 17
2018-08-13 20:00:00 0 6776 24.17 23.17 24.95 64.02 16.7 16.3
2018-08-13 21:00:00 0 6756 22.14 21.42 22.81 73.18 16.9 16.4
2018-08-13 22:00:00 0 6756 21.46 20.05 22.25 79.61 17.6 17.2
2018-08-13 23:00:00 0 6748 20.19 19.17 20.86 83.94 17.2 16.7
2018-08-14 00:00:00 0 6738 19.04 18.52 19.46 86.17 16.5 16.1
2018-08-14 01:00:00 0 6728 18.45 17.65 18.94 87.41 16.1 15.8
2018-08-14 02:00:00 0 6728 17.58 17.34 18 96.86 16.9 15.9
2018-08-14 03:00:00 0 6738 17.09 16.41 17.66 97.63 16.6 15.9
2018-08-14 04:00:00 0 6718 16.24 15.75 16.8 95.83 15.4 15.2
2018-08-14 05:00:00 0 6718 15.97 15.47 16.82 94.24 14.9 14.4
2018-08-14 06:00:00 0 6834 15.67 15.17 16.63 99.2 15.4 14.8
2018-08-14 07:00:00 0 7332 19.35 17.2 21.28 88.97 17.2 15.1
2018-08-14 08:00:00 0 7332 22.75 21.55 23.72 61.55 14.8 14.2
2018-08-14 09:00:00 0 7332 25.28 23.98 26.34 55.8 15.6 15.1
2018-08-14 10:00:00 0 7324 28.52 26.91 29.84 51.32 17.3 16.2